sensor_id;sensor_type;location;lat;lon;timestamp;P1;durP1;ratioP1;P2;durP2;ratioP2
19205;SDS011;59358;52.134;5.596;2022-10-10T00:01:39;17.63;;;9.25;;
19205;SDS011;59358;52.134;5.596;2022-10-10T00:04:06;14.73;;;9.48;;
19205;SDS011;59358;52.134;5.596;2022-10-10T00:06:32;11.80;;;9.20;;
19205;SDS011;59358;52.134;5.596;2022-10-10T00:09:00;14.55;;;9.82;;
19205;SDS011;59358;52.134;5.596;2022-10-10T00:11:28;13.52;;;9.80;;
19205;SDS011;59358;52.134;5.596;2022-10-10T00:13:55;14.10;;;9.07;;
19205;SDS011;59358;52.134;5.596;2022-10-10T00:16:22;15.55;;;9.82;;
19205;SDS011;59358;52.134;5.596;2022-10-10T00:18:50;13.40;;;9.60;;
19205;SDS011;59358;52.134;5.596;2022-10-10T00:21:17;15.25;;;9.57;;
19205;SDS011;59358;52.134;5.596;2022-10-10T00:23:43;13.93;;;9.57;;
19205;SDS011;59358;52.134;5.596;2022-10-10T00:26:10;14.63;;;9.20;;
19205;SDS011;59358;52.134;5.596;2022-10-10T00:28:38;12.90;;;9.18;;
19205;SDS011;59358;52.134;5.596;2022-10-10T00:31:05;12.13;;;9.40;;
19205;SDS011;59358;52.134;5.596;2022-10-10T00:33:32;13.68;;;9.75;;
19205;SDS011;59358;52.134;5.596;2022-10-10T00:35:59;16.63;;;10.10;;
19205;SDS011;59358;52.134;5.596;2022-10-10T00:38:26;12.90;;;9.02;;
19205;SDS011;59358;52.134;5.596;2022-10-10T00:40:54;16.05;;;10.18;;
19205;SDS011;59358;52.134;5.596;2022-10-10T00:43:21;14.18;;;9.65;;
19205;SDS011;59358;52.134;5.596;2022-10-10T00:45:51;16.75;;;9.63;;
19205;SDS011;59358;52.134;5.596;2022-10-10T00:48:19;14.57;;;9.15;;
19205;SDS011;59358;52.134;5.596;2022-10-10T00:50:49;17.27;;;10.23;;
19205;SDS011;59358;52.134;5.596;2022-10-10T00:53:20;15.55;;;9.50;;
19205;SDS011;59358;52.134;5.596;2022-10-10T00:55:49;19.08;;;9.63;;
19205;SDS011;59358;52.134;5.596;2022-10-10T00:58:17;20.52;;;9.88;;
19205;SDS011;59358;52.134;5.596;2022-10-10T01:00:46;15.18;;;10.32;;
19205;SDS011;59358;52.134;5.596;2022-10-10T01:03:14;16.58;;;10.40;;
19205;SDS011;59358;52.134;5.596;2022-10-10T01:05:41;15.15;;;9.93;;
19205;SDS011;59358;52.134;5.596;2022-10-10T01:08:10;16.10;;;10.30;;
19205;SDS011;59358;52.134;5.596;2022-10-10T01:10:40;17.08;;;10.98;;
19205;SDS011;59358;52.134;5.596;2022-10-10T01:13:17;17.40;;;10.48;;
19205;SDS011;59358;52.134;5.596;2022-10-10T01:15:53;13.40;;;10.98;;
19205;SDS011;59358;52.134;5.596;2022-10-10T01:18:27;15.57;;;11.82;;
19205;SDS011;59358;52.134;5.596;2022-10-10T01:21:09;16.33;;;10.73;;
19205;SDS011;59358;52.134;5.596;2022-10-10T01:24:00;20.98;;;11.30;;
19205;SDS011;59358;52.134;5.596;2022-10-10T01:29:44;16.27;;;10.50;;
19205;SDS011;59358;52.134;5.596;2022-10-10T01:32:17;16.65;;;11.32;;
19205;SDS011;59358;52.134;5.596;2022-10-10T01:34:52;13.38;;;10.10;;
19205;SDS011;59358;52.134;5.596;2022-10-10T01:37:27;15.35;;;12.00;;
19205;SDS011;59358;52.134;5.596;2022-10-10T01:40:03;17.05;;;10.40;;
19205;SDS011;59358;52.134;5.596;2022-10-10T01:42:38;15.73;;;10.40;;
19205;SDS011;59358;52.134;5.596;2022-10-10T01:45:10;15.32;;;10.20;;
19205;SDS011;59358;52.134;5.596;2022-10-10T01:47:36;13.80;;;10.13;;
19205;SDS011;59358;52.134;5.596;2022-10-10T01:50:04;13.98;;;10.20;;
19205;SDS011;59358;52.134;5.596;2022-10-10T01:52:40;12.80;;;9.50;;
19205;SDS011;59358;52.134;5.596;2022-10-10T01:55:19;13.85;;;10.40;;
19205;SDS011;59358;52.134;5.596;2022-10-10T01:58:06;14.80;;;10.40;;
19205;SDS011;59358;52.134;5.596;2022-10-10T02:00:47;11.52;;;9.27;;
19205;SDS011;59358;52.134;5.596;2022-10-10T02:03:19;13.95;;;9.40;;
19205;SDS011;59358;52.134;5.596;2022-10-10T02:05:51;13.32;;;9.43;;
19205;SDS011;59358;52.134;5.596;2022-10-10T02:08:24;13.52;;;9.80;;
19205;SDS011;59358;52.134;5.596;2022-10-10T02:10:58;14.05;;;9.93;;
19205;SDS011;59358;52.134;5.596;2022-10-10T02:13:27;16.45;;;10.10;;
19205;SDS011;59358;52.134;5.596;2022-10-10T02:15:59;17.45;;;9.73;;
19205;SDS011;59358;52.134;5.596;2022-10-10T02:18:29;14.13;;;9.90;;
19205;SDS011;59358;52.134;5.596;2022-10-10T02:20:58;12.65;;;9.52;;
19205;SDS011;59358;52.134;5.596;2022-10-10T02:23:28;13.10;;;9.15;;
19205;SDS011;59358;52.134;5.596;2022-10-10T02:25:55;13.77;;;8.57;;
19205;SDS011;59358;52.134;5.596;2022-10-10T02:28:23;14.73;;;9.70;;
19205;SDS011;59358;52.134;5.596;2022-10-10T02:30:55;13.07;;;9.45;;
19205;SDS011;59358;52.134;5.596;2022-10-10T02:33:28;14.00;;;9.63;;
19205;SDS011;59358;52.134;5.596;2022-10-10T02:35:59;12.27;;;9.30;;
19205;SDS011;59358;52.134;5.596;2022-10-10T02:38:26;20.30;;;9.15;;
19205;SDS011;59358;52.134;5.596;2022-10-10T02:40:56;11.57;;;9.02;;
19205;SDS011;59358;52.134;5.596;2022-10-10T02:43:27;16.40;;;9.93;;
19205;SDS011;59358;52.134;5.596;2022-10-10T02:45:56;15.45;;;9.48;;
19205;SDS011;59358;52.134;5.596;2022-10-10T02:48:23;13.02;;;9.02;;
19205;SDS011;59358;52.134;5.596;2022-10-10T02:50:51;14.65;;;10.00;;
19205;SDS011;59358;52.134;5.596;2022-10-10T02:53:19;13.50;;;9.27;;
19205;SDS011;59358;52.134;5.596;2022-10-10T02:55:45;13.02;;;9.35;;
19205;SDS011;59358;52.134;5.596;2022-10-10T02:58:12;13.38;;;9.05;;
19205;SDS011;59358;52.134;5.596;2022-10-10T03:00:39;14.70;;;9.82;;
19205;SDS011;59358;52.134;5.596;2022-10-10T03:03:06;12.38;;;8.82;;
19205;SDS011;59358;52.134;5.596;2022-10-10T03:05:32;21.60;;;9.77;;
19205;SDS011;59358;52.134;5.596;2022-10-10T03:08:00;12.38;;;9.68;;
19205;SDS011;59358;52.134;5.596;2022-10-10T03:10:27;12.27;;;9.82;;
19205;SDS011;59358;52.134;5.596;2022-10-10T03:12:54;15.32;;;10.48;;
19205;SDS011;59358;52.134;5.596;2022-10-10T03:15:21;11.20;;;9.23;;
19205;SDS011;59358;52.134;5.596;2022-10-10T03:17:48;14.00;;;9.55;;
19205;SDS011;59358;52.134;5.596;2022-10-10T03:20:15;16.33;;;10.10;;
19205;SDS011;59358;52.134;5.596;2022-10-10T03:22:42;16.67;;;10.90;;
19205;SDS011;59358;52.134;5.596;2022-10-10T03:25:10;12.65;;;10.45;;
19205;SDS011;59358;52.134;5.596;2022-10-10T03:27:37;16.50;;;9.85;;
19205;SDS011;59358;52.134;5.596;2022-10-10T03:30:04;16.25;;;9.85;;
19205;SDS011;59358;52.134;5.596;2022-10-10T03:32:31;14.05;;;10.48;;
19205;SDS011;59358;52.134;5.596;2022-10-10T03:34:59;12.38;;;9.38;;
19205;SDS011;59358;52.134;5.596;2022-10-10T03:37:25;14.52;;;9.52;;
19205;SDS011;59358;52.134;5.596;2022-10-10T03:39:52;15.85;;;10.80;;
19205;SDS011;59358;52.134;5.596;2022-10-10T03:42:21;15.85;;;9.90;;
19205;SDS011;59358;52.134;5.596;2022-10-10T03:44:48;15.38;;;9.77;;
19205;SDS011;59358;52.134;5.596;2022-10-10T03:47:14;19.02;;;10.50;;
19205;SDS011;59358;52.134;5.596;2022-10-10T03:49:41;14.10;;;10.80;;
19205;SDS011;59358;52.134;5.596;2022-10-10T03:52:08;17.58;;;9.50;;
19205;SDS011;59358;52.134;5.596;2022-10-10T03:54:35;11.25;;;8.68;;
19205;SDS011;59358;52.134;5.596;2022-10-10T03:57:02;13.50;;;9.65;;
19205;SDS011;59358;52.134;5.596;2022-10-10T03:59:30;15.60;;;9.43;;
19205;SDS011;59358;52.134;5.596;2022-10-10T04:01:57;14.10;;;9.23;;
19205;SDS011;59358;52.134;5.596;2022-10-10T04:04:23;19.05;;;10.32;;
19205;SDS011;59358;52.134;5.596;2022-10-10T04:06:50;15.43;;;9.30;;
19205;SDS011;59358;52.134;5.596;2022-10-10T04:09:17;11.90;;;8.98;;
19205;SDS011;59358;52.134;5.596;2022-10-10T04:11:44;14.40;;;9.52;;
19205;SDS011;59358;52.134;5.596;2022-10-10T04:14:11;12.85;;;9.52;;
19205;SDS011;59358;52.134;5.596;2022-10-10T04:16:39;13.23;;;9.18;;
19205;SDS011;59358;52.134;5.596;2022-10-10T04:19:06;13.93;;;9.82;;
19205;SDS011;59358;52.134;5.596;2022-10-10T04:21:33;12.95;;;9.88;;
19205;SDS011;59358;52.134;5.596;2022-10-10T04:24:00;17.73;;;9.88;;
19205;SDS011;59358;52.134;5.596;2022-10-10T04:26:26;15.20;;;9.40;;
19205;SDS011;59358;52.134;5.596;2022-10-10T04:28:53;18.52;;;10.40;;
19205;SDS011;59358;52.134;5.596;2022-10-10T04:31:20;11.18;;;9.30;;
19205;SDS011;59358;52.134;5.596;2022-10-10T04:33:49;13.52;;;9.30;;
19205;SDS011;59358;52.134;5.596;2022-10-10T04:36:16;15.25;;;10.20;;
19205;SDS011;59358;52.134;5.596;2022-10-10T04:38:43;16.63;;;9.80;;
19205;SDS011;59358;52.134;5.596;2022-10-10T04:41:10;13.50;;;9.32;;
19205;SDS011;59358;52.134;5.596;2022-10-10T04:43:37;14.38;;;10.27;;
19205;SDS011;59358;52.134;5.596;2022-10-10T04:46:04;21.40;;;12.25;;
19205;SDS011;59358;52.134;5.596;2022-10-10T04:48:30;18.65;;;11.18;;
19205;SDS011;59358;52.134;5.596;2022-10-10T04:50:59;16.55;;;11.23;;
19205;SDS011;59358;52.134;5.596;2022-10-10T04:53:25;15.30;;;11.00;;
19205;SDS011;59358;52.134;5.596;2022-10-10T04:55:53;16.60;;;11.18;;
19205;SDS011;59358;52.134;5.596;2022-10-10T04:58:20;15.20;;;11.35;;
19205;SDS011;59358;52.134;5.596;2022-10-10T05:00:49;15.73;;;10.63;;
19205;SDS011;59358;52.134;5.596;2022-10-10T05:03:17;18.02;;;11.35;;
19205;SDS011;59358;52.134;5.596;2022-10-10T05:05:44;17.73;;;12.38;;
19205;SDS011;59358;52.134;5.596;2022-10-10T05:08:12;16.02;;;11.90;;
19205;SDS011;59358;52.134;5.596;2022-10-10T05:10:39;17.33;;;11.55;;
19205;SDS011;59358;52.134;5.596;2022-10-10T05:13:06;20.55;;;11.93;;
19205;SDS011;59358;52.134;5.596;2022-10-10T05:15:36;18.05;;;11.85;;
19205;SDS011;59358;52.134;5.596;2022-10-10T05:18:03;21.23;;;11.43;;
19205;SDS011;59358;52.134;5.596;2022-10-10T05:20:30;15.38;;;11.35;;
19205;SDS011;59358;52.134;5.596;2022-10-10T05:22:58;22.58;;;12.57;;
19205;SDS011;59358;52.134;5.596;2022-10-10T05:25:26;19.65;;;13.52;;
19205;SDS011;59358;52.134;5.596;2022-10-10T05:27:53;17.17;;;11.95;;
19205;SDS011;59358;52.134;5.596;2022-10-10T05:30:20;17.50;;;12.80;;
19205;SDS011;59358;52.134;5.596;2022-10-10T05:32:47;21.85;;;12.05;;
19205;SDS011;59358;52.134;5.596;2022-10-10T05:35:13;20.90;;;13.77;;
19205;SDS011;59358;52.134;5.596;2022-10-10T05:37:41;16.55;;;11.35;;
19205;SDS011;59358;52.134;5.596;2022-10-10T05:40:08;23.42;;;13.63;;
19205;SDS011;59358;52.134;5.596;2022-10-10T05:42:37;19.90;;;12.88;;
19205;SDS011;59358;52.134;5.596;2022-10-10T05:45:04;18.15;;;13.02;;
19205;SDS011;59358;52.134;5.596;2022-10-10T05:47:31;17.15;;;12.43;;
19205;SDS011;59358;52.134;5.596;2022-10-10T05:49:58;22.60;;;14.48;;
19205;SDS011;59358;52.134;5.596;2022-10-10T05:52:26;17.95;;;13.65;;
19205;SDS011;59358;52.134;5.596;2022-10-10T05:54:53;19.27;;;13.60;;
19205;SDS011;59358;52.134;5.596;2022-10-10T05:57:20;21.30;;;13.95;;
19205;SDS011;59358;52.134;5.596;2022-10-10T05:59:48;18.15;;;13.55;;
19205;SDS011;59358;52.134;5.596;2022-10-10T06:02:15;22.42;;;13.55;;
19205;SDS011;59358;52.134;5.596;2022-10-10T06:04:41;19.65;;;13.70;;
19205;SDS011;59358;52.134;5.596;2022-10-10T06:07:08;21.83;;;13.93;;
19205;SDS011;59358;52.134;5.596;2022-10-10T06:09:35;27.65;;;17.50;;
19205;SDS011;59358;52.134;5.596;2022-10-10T06:12:02;24.80;;;15.75;;
19205;SDS011;59358;52.134;5.596;2022-10-10T06:14:29;24.48;;;14.93;;
19205;SDS011;59358;52.134;5.596;2022-10-10T06:16:57;21.73;;;14.43;;
19205;SDS011;59358;52.134;5.596;2022-10-10T06:19:24;17.48;;;14.00;;
19205;SDS011;59358;52.134;5.596;2022-10-10T06:21:50;20.77;;;14.52;;
19205;SDS011;59358;52.134;5.596;2022-10-10T06:24:17;27.40;;;14.95;;
19205;SDS011;59358;52.134;5.596;2022-10-10T06:26:44;23.63;;;15.05;;
19205;SDS011;59358;52.134;5.596;2022-10-10T06:29:11;24.13;;;14.98;;
19205;SDS011;59358;52.134;5.596;2022-10-10T06:31:38;19.48;;;13.70;;
19205;SDS011;59358;52.134;5.596;2022-10-10T06:34:06;24.05;;;18.10;;
19205;SDS011;59358;52.134;5.596;2022-10-10T06:36:33;23.63;;;20.95;;
19205;SDS011;59358;52.134;5.596;2022-10-10T06:39:00;25.48;;;19.33;;
19205;SDS011;59358;52.134;5.596;2022-10-10T06:41:27;23.23;;;14.90;;
19205;SDS011;59358;52.134;5.596;2022-10-10T06:43:54;23.77;;;15.13;;
19205;SDS011;59358;52.134;5.596;2022-10-10T06:46:20;34.25;;;14.90;;
19205;SDS011;59358;52.134;5.596;2022-10-10T06:48:48;21.48;;;13.77;;
19205;SDS011;59358;52.134;5.596;2022-10-10T06:51:16;20.85;;;13.85;;
19205;SDS011;59358;52.134;5.596;2022-10-10T06:53:44;20.02;;;13.38;;
19205;SDS011;59358;52.134;5.596;2022-10-10T06:56:12;21.63;;;13.82;;
19205;SDS011;59358;52.134;5.596;2022-10-10T06:58:45;20.00;;;13.48;;
19205;SDS011;59358;52.134;5.596;2022-10-10T07:01:12;21.40;;;13.75;;
19205;SDS011;59358;52.134;5.596;2022-10-10T07:03:39;19.08;;;12.60;;
19205;SDS011;59358;52.134;5.596;2022-10-10T07:06:07;18.95;;;12.98;;
19205;SDS011;59358;52.134;5.596;2022-10-10T07:08:36;22.50;;;14.68;;
19205;SDS011;59358;52.134;5.596;2022-10-10T07:11:04;19.70;;;14.63;;
19205;SDS011;59358;52.134;5.596;2022-10-10T07:13:31;17.52;;;12.65;;
19205;SDS011;59358;52.134;5.596;2022-10-10T07:15:58;21.77;;;13.07;;
19205;SDS011;59358;52.134;5.596;2022-10-10T07:18:25;23.13;;;12.32;;
19205;SDS011;59358;52.134;5.596;2022-10-10T07:20:54;20.92;;;10.98;;
19205;SDS011;59358;52.134;5.596;2022-10-10T07:23:21;19.20;;;12.50;;
19205;SDS011;59358;52.134;5.596;2022-10-10T07:25:49;21.30;;;13.30;;
19205;SDS011;59358;52.134;5.596;2022-10-10T07:28:17;17.90;;;11.13;;
19205;SDS011;59358;52.134;5.596;2022-10-10T07:30:44;17.40;;;10.93;;
19205;SDS011;59358;52.134;5.596;2022-10-10T07:33:11;16.23;;;11.30;;
19205;SDS011;59358;52.134;5.596;2022-10-10T07:35:39;15.98;;;10.93;;
19205;SDS011;59358;52.134;5.596;2022-10-10T07:38:06;18.90;;;11.43;;
19205;SDS011;59358;52.134;5.596;2022-10-10T07:40:33;18.73;;;11.73;;
19205;SDS011;59358;52.134;5.596;2022-10-10T07:43:01;16.88;;;10.48;;
19205;SDS011;59358;52.134;5.596;2022-10-10T07:45:27;14.98;;;9.82;;
19205;SDS011;59358;52.134;5.596;2022-10-10T07:47:54;16.05;;;9.82;;
19205;SDS011;59358;52.134;5.596;2022-10-10T07:50:21;18.48;;;10.35;;
19205;SDS011;59358;52.134;5.596;2022-10-10T07:52:50;16.90;;;10.25;;
19205;SDS011;59358;52.134;5.596;2022-10-10T07:55:16;15.15;;;9.75;;
19205;SDS011;59358;52.134;5.596;2022-10-10T07:57:43;18.48;;;9.48;;
19205;SDS011;59358;52.134;5.596;2022-10-10T08:00:14;18.92;;;10.32;;
19205;SDS011;59358;52.134;5.596;2022-10-10T08:02:41;16.95;;;9.68;;
19205;SDS011;59358;52.134;5.596;2022-10-10T08:05:09;13.52;;;8.80;;
19205;SDS011;59358;52.134;5.596;2022-10-10T08:07:36;14.90;;;9.68;;
19205;SDS011;59358;52.134;5.596;2022-10-10T08:10:03;12.07;;;9.70;;
19205;SDS011;59358;52.134;5.596;2022-10-10T08:12:32;14.38;;;8.98;;
19205;SDS011;59358;52.134;5.596;2022-10-10T08:14:59;14.73;;;8.90;;
19205;SDS011;59358;52.134;5.596;2022-10-10T08:17:27;14.85;;;8.35;;
19205;SDS011;59358;52.134;5.596;2022-10-10T08:19:54;17.30;;;8.40;;
19205;SDS011;59358;52.134;5.596;2022-10-10T08:22:21;11.85;;;7.53;;
19205;SDS011;59358;52.134;5.596;2022-10-10T08:24:48;10.77;;;7.90;;
19205;SDS011;59358;52.134;5.596;2022-10-10T08:27:15;14.30;;;8.15;;
19205;SDS011;59358;52.134;5.596;2022-10-10T08:29:43;10.18;;;7.65;;
19205;SDS011;59358;52.134;5.596;2022-10-10T08:32:10;17.92;;;8.32;;
19205;SDS011;59358;52.134;5.596;2022-10-10T08:34:39;16.60;;;8.48;;
19205;SDS011;59358;52.134;5.596;2022-10-10T08:37:06;12.20;;;7.97;;
19205;SDS011;59358;52.134;5.596;2022-10-10T08:39:33;14.45;;;8.15;;
19205;SDS011;59358;52.134;5.596;2022-10-10T08:42:00;14.20;;;8.00;;
19205;SDS011;59358;52.134;5.596;2022-10-10T08:44:28;13.05;;;7.60;;
19205;SDS011;59358;52.134;5.596;2022-10-10T08:47:01;15.07;;;7.90;;
19205;SDS011;59358;52.134;5.596;2022-10-10T08:49:32;12.63;;;7.20;;
19205;SDS011;59358;52.134;5.596;2022-10-10T08:52:04;11.63;;;7.28;;
19205;SDS011;59358;52.134;5.596;2022-10-10T08:54:33;9.85;;;6.95;;
19205;SDS011;59358;52.134;5.596;2022-10-10T08:57:04;11.88;;;7.75;;
19205;SDS011;59358;52.134;5.596;2022-10-10T08:59:33;10.82;;;6.88;;
19205;SDS011;59358;52.134;5.596;2022-10-10T09:02:17;12.98;;;7.00;;
19205;SDS011;59358;52.134;5.596;2022-10-10T09:04:52;10.15;;;7.03;;
19205;SDS011;59358;52.134;5.596;2022-10-10T09:07:23;13.02;;;7.03;;
19205;SDS011;59358;52.134;5.596;2022-10-10T09:10:01;10.82;;;6.47;;
19205;SDS011;59358;52.134;5.596;2022-10-10T09:12:41;10.10;;;6.82;;
19205;SDS011;59358;52.134;5.596;2022-10-10T09:15:17;13.35;;;7.15;;
19205;SDS011;59358;52.134;5.596;2022-10-10T09:17:51;10.82;;;6.55;;
19205;SDS011;59358;52.134;5.596;2022-10-10T09:20:31;12.15;;;7.22;;
19205;SDS011;59358;52.134;5.596;2022-10-10T09:23:15;9.57;;;7.30;;
19205;SDS011;59358;52.134;5.596;2022-10-10T09:25:47;12.18;;;7.18;;
19205;SDS011;59358;52.134;5.596;2022-10-10T09:28:23;11.57;;;7.20;;
19205;SDS011;59358;52.134;5.596;2022-10-10T09:30:59;16.38;;;7.30;;
19205;SDS011;59358;52.134;5.596;2022-10-10T09:33:28;13.95;;;7.10;;
19205;SDS011;59358;52.134;5.596;2022-10-10T09:36:01;17.20;;;7.43;;
19205;SDS011;59358;52.134;5.596;2022-10-10T09:38:33;15.80;;;7.35;;
19205;SDS011;59358;52.134;5.596;2022-10-10T09:41:04;11.82;;;6.75;;
19205;SDS011;59358;52.134;5.596;2022-10-10T09:43:38;9.48;;;6.80;;
19205;SDS011;59358;52.134;5.596;2022-10-10T09:46:06;10.80;;;6.85;;
19205;SDS011;59358;52.134;5.596;2022-10-10T09:48:33;9.88;;;6.93;;
19205;SDS011;59358;52.134;5.596;2022-10-10T09:51:03;15.40;;;8.40;;
19205;SDS011;59358;52.134;5.596;2022-10-10T09:53:34;10.57;;;7.55;;
19205;SDS011;59358;52.134;5.596;2022-10-10T09:56:00;16.63;;;7.68;;
19205;SDS011;59358;52.134;5.596;2022-10-10T09:58:31;11.50;;;7.10;;
19205;SDS011;59358;52.134;5.596;2022-10-10T10:01:09;10.50;;;7.57;;
19205;SDS011;59358;52.134;5.596;2022-10-10T10:03:40;13.15;;;7.60;;
19205;SDS011;59358;52.134;5.596;2022-10-10T10:06:09;15.20;;;7.55;;
19205;SDS011;59358;52.134;5.596;2022-10-10T10:08:39;11.30;;;7.40;;
19205;SDS011;59358;52.134;5.596;2022-10-10T10:11:19;17.00;;;7.93;;
19205;SDS011;59358;52.134;5.596;2022-10-10T10:13:52;14.57;;;8.07;;
19205;SDS011;59358;52.134;5.596;2022-10-10T10:16:23;10.88;;;7.47;;
19205;SDS011;59358;52.134;5.596;2022-10-10T10:18:56;12.80;;;7.75;;
19205;SDS011;59358;52.134;5.596;2022-10-10T10:21:23;11.65;;;7.25;;
19205;SDS011;59358;52.134;5.596;2022-10-10T10:23:56;12.82;;;8.15;;
19205;SDS011;59358;52.134;5.596;2022-10-10T10:26:26;17.08;;;7.85;;
19205;SDS011;59358;52.134;5.596;2022-10-10T10:28:56;11.88;;;7.60;;
19205;SDS011;59358;52.134;5.596;2022-10-10T10:31:26;14.35;;;7.40;;
19205;SDS011;59358;52.134;5.596;2022-10-10T10:34:09;11.82;;;8.07;;
19205;SDS011;59358;52.134;5.596;2022-10-10T10:36:46;16.10;;;7.72;;
19205;SDS011;59358;52.134;5.596;2022-10-10T10:39:24;12.35;;;7.90;;
19205;SDS011;59358;52.134;5.596;2022-10-10T10:42:04;13.90;;;7.80;;
19205;SDS011;59358;52.134;5.596;2022-10-10T10:44:39;11.77;;;7.53;;
19205;SDS011;59358;52.134;5.596;2022-10-10T10:47:20;14.80;;;8.10;;
19205;SDS011;59358;52.134;5.596;2022-10-10T10:50:01;12.15;;;7.68;;
19205;SDS011;59358;52.134;5.596;2022-10-10T10:52:42;12.13;;;7.20;;
19205;SDS011;59358;52.134;5.596;2022-10-10T10:55:20;16.50;;;8.57;;
19205;SDS011;59358;52.134;5.596;2022-10-10T11:00:55;18.83;;;8.52;;
19205;SDS011;59358;52.134;5.596;2022-10-10T11:03:28;12.18;;;8.15;;
19205;SDS011;59358;52.134;5.596;2022-10-10T11:06:11;13.50;;;8.25;;
19205;SDS011;59358;52.134;5.596;2022-10-10T11:08:59;16.73;;;7.95;;
19205;SDS011;59358;52.134;5.596;2022-10-10T11:11:37;9.98;;;7.18;;
19205;SDS011;59358;52.134;5.596;2022-10-10T11:14:13;11.18;;;7.93;;
19205;SDS011;59358;52.134;5.596;2022-10-10T11:16:51;11.13;;;7.47;;
19205;SDS011;59358;52.134;5.596;2022-10-10T11:19:24;11.48;;;7.30;;
19205;SDS011;59358;52.134;5.596;2022-10-10T11:21:56;12.15;;;7.13;;
19205;SDS011;59358;52.134;5.596;2022-10-10T11:24:32;15.02;;;7.20;;
19205;SDS011;59358;52.134;5.596;2022-10-10T11:27:08;11.15;;;6.60;;
19205;SDS011;59358;52.134;5.596;2022-10-10T11:29:46;12.27;;;7.20;;
19205;SDS011;59358;52.134;5.596;2022-10-10T11:32:23;13.70;;;6.90;;
19205;SDS011;59358;52.134;5.596;2022-10-10T11:35:01;7.70;;;6.90;;
19205;SDS011;59358;52.134;5.596;2022-10-10T11:37:35;11.48;;;6.93;;
19205;SDS011;59358;52.134;5.596;2022-10-10T11:40:10;11.00;;;7.07;;
19205;SDS011;59358;52.134;5.596;2022-10-10T11:42:54;13.45;;;7.82;;
19205;SDS011;59358;52.134;5.596;2022-10-10T11:45:24;15.25;;;6.45;;
19205;SDS011;59358;52.134;5.596;2022-10-10T11:47:55;14.35;;;7.43;;
19205;SDS011;59358;52.134;5.596;2022-10-10T11:50:28;13.30;;;8.43;;
19205;SDS011;59358;52.134;5.596;2022-10-10T11:52:59;16.95;;;7.65;;
19205;SDS011;59358;52.134;5.596;2022-10-10T11:55:32;10.48;;;7.00;;
19205;SDS011;59358;52.134;5.596;2022-10-10T11:58:24;18.67;;;7.55;;
19205;SDS011;59358;52.134;5.596;2022-10-10T12:00:58;13.93;;;6.90;;
19205;SDS011;59358;52.134;5.596;2022-10-10T12:03:30;11.02;;;7.55;;
19205;SDS011;59358;52.134;5.596;2022-10-10T12:05:59;17.05;;;7.38;;
19205;SDS011;59358;52.134;5.596;2022-10-10T12:08:32;12.30;;;7.40;;
19205;SDS011;59358;52.134;5.596;2022-10-10T12:11:04;16.17;;;7.93;;
19205;SDS011;59358;52.134;5.596;2022-10-10T12:13:38;21.00;;;10.18;;
19205;SDS011;59358;52.134;5.596;2022-10-10T12:16:08;18.38;;;7.57;;
19205;SDS011;59358;52.134;5.596;2022-10-10T12:18:38;12.30;;;7.82;;
19205;SDS011;59358;52.134;5.596;2022-10-10T12:21:08;18.48;;;8.32;;
19205;SDS011;59358;52.134;5.596;2022-10-10T12:23:38;16.65;;;8.45;;
19205;SDS011;59358;52.134;5.596;2022-10-10T12:26:11;19.80;;;8.27;;
19205;SDS011;59358;52.134;5.596;2022-10-10T12:31:35;13.00;;;8.35;;
19205;SDS011;59358;52.134;5.596;2022-10-10T12:34:10;12.27;;;8.88;;
19205;SDS011;59358;52.134;5.596;2022-10-10T12:36:41;18.13;;;8.48;;
19205;SDS011;59358;52.134;5.596;2022-10-10T12:39:30;18.88;;;9.15;;
19205;SDS011;59358;52.134;5.596;2022-10-10T12:41:59;14.50;;;9.02;;
19205;SDS011;59358;52.134;5.596;2022-10-10T12:44:42;17.48;;;11.00;;
19205;SDS011;59358;52.134;5.596;2022-10-10T12:50:03;18.60;;;10.02;;
19205;SDS011;59358;52.134;5.596;2022-10-10T12:52:31;18.58;;;10.85;;
19205;SDS011;59358;52.134;5.596;2022-10-10T12:55:01;15.10;;;11.38;;
19205;SDS011;59358;52.134;5.596;2022-10-10T12:57:32;21.42;;;11.43;;
19205;SDS011;59358;52.134;5.596;2022-10-10T13:00:07;22.27;;;12.00;;
19205;SDS011;59358;52.134;5.596;2022-10-10T13:02:41;17.27;;;11.10;;
19205;SDS011;59358;52.134;5.596;2022-10-10T13:05:11;17.67;;;12.05;;
19205;SDS011;59358;52.134;5.596;2022-10-10T13:07:43;27.33;;;12.52;;
19205;SDS011;59358;52.134;5.596;2022-10-10T13:10:18;20.05;;;11.82;;
19205;SDS011;59358;52.134;5.596;2022-10-10T13:12:57;16.67;;;10.98;;
19205;SDS011;59358;52.134;5.596;2022-10-10T13:15:26;20.48;;;12.18;;
19205;SDS011;59358;52.134;5.596;2022-10-10T13:17:54;26.67;;;11.73;;
19205;SDS011;59358;52.134;5.596;2022-10-10T13:20:29;22.50;;;14.35;;
19205;SDS011;59358;52.134;5.596;2022-10-10T13:23:02;17.48;;;12.23;;
19205;SDS011;59358;52.134;5.596;2022-10-10T13:25:31;22.17;;;12.52;;
19205;SDS011;59358;52.134;5.596;2022-10-10T13:27:58;24.42;;;14.13;;
19205;SDS011;59358;52.134;5.596;2022-10-10T13:30:27;21.48;;;13.05;;
19205;SDS011;59358;52.134;5.596;2022-10-10T13:32:53;23.05;;;13.73;;
19205;SDS011;59358;52.134;5.596;2022-10-10T13:35:22;19.98;;;13.40;;
19205;SDS011;59358;52.134;5.596;2022-10-10T13:37:52;22.77;;;13.25;;
19205;SDS011;59358;52.134;5.596;2022-10-10T13:40:21;26.55;;;13.73;;
19205;SDS011;59358;52.134;5.596;2022-10-10T13:42:48;24.13;;;13.38;;
19205;SDS011;59358;52.134;5.596;2022-10-10T13:45:26;18.17;;;13.60;;
19205;SDS011;59358;52.134;5.596;2022-10-10T13:48:09;23.25;;;14.23;;
19205;SDS011;59358;52.134;5.596;2022-10-10T13:50:52;20.33;;;13.32;;
19205;SDS011;59358;52.134;5.596;2022-10-10T13:53:41;22.27;;;13.18;;
19205;SDS011;59358;52.134;5.596;2022-10-10T13:56:11;19.83;;;13.25;;
19205;SDS011;59358;52.134;5.596;2022-10-10T13:58:43;21.35;;;12.38;;
19205;SDS011;59358;52.134;5.596;2022-10-10T14:01:18;16.45;;;10.48;;
19205;SDS011;59358;52.134;5.596;2022-10-10T14:03:49;9.02;;;5.00;;
19205;SDS011;59358;52.134;5.596;2022-10-10T14:06:18;5.30;;;2.53;;
19205;SDS011;59358;52.134;5.596;2022-10-10T14:08:46;5.97;;;2.30;;
19205;SDS011;59358;52.134;5.596;2022-10-10T14:11:15;2.22;;;1.70;;
19205;SDS011;59358;52.134;5.596;2022-10-10T14:13:45;2.40;;;1.75;;
19205;SDS011;59358;52.134;5.596;2022-10-10T14:16:23;3.22;;;1.83;;
19205;SDS011;59358;52.134;5.596;2022-10-10T14:18:50;6.43;;;2.50;;
19205;SDS011;59358;52.134;5.596;2022-10-10T14:21:17;5.50;;;2.35;;
19205;SDS011;59358;52.134;5.596;2022-10-10T14:23:44;5.18;;;2.25;;
19205;SDS011;59358;52.134;5.596;2022-10-10T14:26:12;4.68;;;2.08;;
19205;SDS011;59358;52.134;5.596;2022-10-10T14:28:40;6.13;;;2.70;;
19205;SDS011;59358;52.134;5.596;2022-10-10T14:31:08;6.03;;;2.58;;
19205;SDS011;59358;52.134;5.596;2022-10-10T14:33:37;6.22;;;2.78;;
19205;SDS011;59358;52.134;5.596;2022-10-10T14:36:04;8.70;;;2.75;;
19205;SDS011;59358;52.134;5.596;2022-10-10T14:38:31;8.55;;;2.92;;
19205;SDS011;59358;52.134;5.596;2022-10-10T14:40:58;7.30;;;3.08;;
19205;SDS011;59358;52.134;5.596;2022-10-10T14:43:26;9.77;;;3.70;;
19205;SDS011;59358;52.134;5.596;2022-10-10T14:45:53;6.63;;;3.58;;
19205;SDS011;59358;52.134;5.596;2022-10-10T14:48:20;10.50;;;2.78;;
19205;SDS011;59358;52.134;5.596;2022-10-10T14:50:49;9.85;;;2.70;;
19205;SDS011;59358;52.134;5.596;2022-10-10T14:53:16;7.28;;;2.85;;
19205;SDS011;59358;52.134;5.596;2022-10-10T14:55:44;6.68;;;2.70;;
19205;SDS011;59358;52.134;5.596;2022-10-10T14:58:13;11.10;;;2.35;;
19205;SDS011;59358;52.134;5.596;2022-10-10T15:00:44;11.07;;;2.60;;